Time;durP1;ratioP1;P1;durP2;ratioP2;P2;SDS_P1;SDS_P2;PMS_P1;PMS_P2;Temp;Humidity;BMP_temperature;BMP_pressure;BME280_temperature;BME280_humidity;BME280_pressure;Samples;Min_cycle;Max_cycle;Signal;HPM_P1;HPM_P2
2021/07/20 00:00:25;;;;;;;;;;;;;;;;;;1032799;28;20304;-79
2021/07/20 00:00:56;;;;;;;;;;;;;;;;;;1036509;28;19906;-79
2021/07/20 00:01:26;;;;;;;;;;;;;;;;;;1036661;28;19913;-80
2021/07/20 00:01:56;;;;;;;;;;;;;;;;;;1040732;28;20004;-80
2021/07/20 00:02:26;;;;;;;;;;;;;;;;;;1040643;28;19910;-80
2021/07/20 00:02:58;;;;;;;;;;;;;;;;;;1040669;28;19909;-79
2021/07/20 00:03:28;;;;;;;;;;;;;;;;;;1036565;28;19917;-79
2021/07/20 00:03:59;;;;;;;;;;;;;;;;;;1036542;28;19906;-79
2021/07/20 00:04:29;;;;;;;;;;;;;;;;;;1036823;28;19905;-80
2021/07/20 00:04:59;;;;;;;;;;;;;;;;;;1036582;28;20367;-79
2021/07/20 00:05:29;;;;;;;;;;;;;;;;;;1040929;28;19905;-80
2021/07/20 00:06:00;;;;;;;;;;;;;;;;;;1036587;28;19996;-80
2021/07/20 00:06:30;;;;;;;;;;;;;;;;;;1036822;28;19912;-79
2021/07/20 00:07:00;;;;;;;;;;;;;;;;;;1036574;28;19913;-78
2021/07/20 00:07:30;;;;;;;;;;;;;;;;;;1036522;28;19913;-80
2021/07/20 00:08:01;;;;;;;;;;;;;;;;;;1040725;28;19902;-78
2021/07/20 00:08:31;;;;;;;;;;;;;;;;;;1040835;28;19912;-81
2021/07/20 00:09:02;;;;;;;;;;;;;;;;;;1040594;28;19909;-78
2021/07/20 00:09:33;;;;;;;;;;;;;;;;;;1032550;28;19906;-78
2021/07/20 00:10:03;;;;;;;;;;;;;;;;;;1028566;28;19961;-79
2021/07/20 00:10:33;;;;;;;;;;;;;;;;;;1032655;28;19996;-79
2021/07/20 00:11:03;;;;;;;;;;;;;;;;;;1032787;28;19989;-80
2021/07/20 00:11:34;;;;;;;;;;;;;;;;;;1036536;28;19913;-79
2021/07/20 00:12:04;;;;;;;;;;;;;;;;;;1040786;28;19924;-79
2021/07/20 00:12:34;;;;;;;;;;;;;;;;;;1040813;28;20000;-79
2021/07/20 00:13:05;;;;;;;;;;;;;;;;;;1040696;28;19956;-79
2021/07/20 00:13:35;;;;;;;;;;;;;;;;;;1040797;28;19907;-79
2021/07/20 00:14:05;;;;;;;;;;;;;;;;;;1040805;28;20367;-79
2021/07/20 00:14:35;;;;;;;;;;;;;;;;;;1036684;28;19902;-80
2021/07/20 00:15:06;;;;;;;;;;;;;;;;;;1036820;28;19937;-80
2021/07/20 00:15:36;;;;;;;;;;;;;;;;;;1032657;28;19948;-78
2021/07/20 00:16:06;;;;;;;;;;;;;;;;;;1036842;28;19902;-79
2021/07/20 00:16:37;;;;;;;;;;;;;;;;;;1041089;28;19910;-79
2021/07/20 00:17:07;;;;;;;;;;;;;;;;;;1037043;28;20003;-80
2021/07/20 00:17:39;;;;;;;;;;;;;;;;;;1036854;28;20379;-80
2021/07/20 00:18:10;;;;;;;;;;;;;;;;;;1036950;28;19988;-80
2021/07/20 00:18:40;;;;;;;;;;;;;;;;;;1036818;28;19909;-80
2021/07/20 00:19:11;;;;;;;;;;;;;;;;;;1032520;28;19902;-79
2021/07/20 00:19:41;;;;;;;;;;;;;;;;;;1037989;28;19932;-81
2021/07/20 00:20:11;;;;;;;;;;;;;;;;;;1037775;28;19905;-81
2021/07/20 00:20:42;;;;;;;;;;;;;;;;;;1037214;28;19928;-80
2021/07/20 00:21:12;;;;;;;;;;;;;;;;;;1033063;28;20025;-80
2021/07/20 00:21:42;;;;;;;;;;;;;;;;;;1037304;28;19973;-80
2021/07/20 00:22:12;;;;;;;;;;;;;;;;;;1037138;28;20008;-81
2021/07/20 00:22:43;;;;;;;;;;;;;;;;;;1028827;28;19906;-80
2021/07/20 00:23:13;;;;;;;;;;;;;;;;;;1032753;28;19906;-80
2021/07/20 00:23:43;;;;;;;;;;;;;;;;;;1032870;28;19977;-81
2021/07/20 00:24:13;;;;;;;;;;;;;;;;;;1036470;28;19971;-80
2021/07/20 00:24:44;;;;;;;;;;;;;;;;;;1036694;28;19952;-80
2021/07/20 00:25:14;;;;;;;;;;;;;;;;;;1036597;28;20323;-80
2021/07/20 00:25:47;;;;;;;;;;;;;;;;;;1036634;28;19959;-80
2021/07/20 00:26:18;;;;;;;;;;;;;;;;;;1032470;28;19910;-80
2021/07/20 00:26:48;;;;;;;;;;;;;;;;;;1032611;28;19910;-79
2021/07/20 00:27:18;;;;;;;;;;;;;;;;;;1032588;28;20514;-79
2021/07/20 00:27:48;;;;;;;;;;;;;;;;;;1032534;28;20000;-79
2021/07/20 00:28:19;;;;;;;;;;;;;;;;;;1033777;28;19910;-80
2021/07/20 00:28:49;;;;;;;;;;;;;;;;;;1034645;28;19910;-79
2021/07/20 00:29:19;;;;;;;;;;;;;;;;;;1030661;28;19910;-79
2021/07/20 00:29:49;;;;;;;;;;;;;;;;;;1034987;28;19974;-80
2021/07/20 00:30:20;;;;;;;;;;;;;;;;;;1035226;28;20312;-80
2021/07/20 00:30:50;;;;;;;;;;;;;;;;;;1031258;28;19911;-80
2021/07/20 00:31:20;;;;;;;;;;;;;;;;;;1043064;28;19937;-80
2021/07/20 00:31:50;;;;;;;;;;;;;;;;;;1039005;28;19909;-80
2021/07/20 00:32:21;;;;;;;;;;;;;;;;;;1038835;28;19910;-79
2021/07/20 00:32:51;;;;;;;;;;;;;;;;;;1039033;28;19910;-80
2021/07/20 00:33:21;;;;;;;;;;;;;;;;;;1041309;28;19909;-80
2021/07/20 00:33:51;;;;;;;;;;;;;;;;;;1044888;28;20680;-80
2021/07/20 00:34:22;;;;;;;;;;;;;;;;;;1040734;28;19936;-80
2021/07/20 00:34:52;;;;;;;;;;;;;;;;;;1032571;28;19973;-80
2021/07/20 00:35:22;;;;;;;;;;;;;;;;;;1028699;28;20383;-80
2021/07/20 00:35:52;;;;;;;;;;;;;;;;;;1032544;28;19909;-80
2021/07/20 00:36:23;;;;;;;;;;;;;;;;;;1032581;28;19964;-80
2021/07/20 00:36:53;;;;;;;;;;;;;;;;;;1036745;28;19919;-80
2021/07/20 00:37:23;;;;;;;;;;;;;;;;;;1036716;28;19971;-80
2021/07/20 00:37:53;;;;;;;;;;;;;;;;;;1033077;28;19910;-80
2021/07/20 00:38:25;;;;;;;;;;;;;;;;;;1032986;28;19925;-80
2021/07/20 00:38:55;;;;;;;;;;;;;;;;;;1032918;28;19946;-79
2021/07/20 00:39:26;;;;;;;;;;;;;;;;;;1036954;28;20256;-80
2021/07/20 00:39:56;;;;;;;;;;;;;;;;;;1041008;28;20011;-80
2021/07/20 00:40:30;;;;;;;;;;;;;;;;;;1044798;28;19940;-80
2021/07/20 00:41:01;;;;;;;;;;;;;;;;;;1040227;28;19913;-79
2021/07/20 00:41:31;;;;;;;;;;;;;;;;;;1040636;28;19905;-80
2021/07/20 00:42:01;;;;;;;;;;;;;;;;;;1040668;28;19909;-80
2021/07/20 00:42:31;;;;;;;;;;;;;;;;;;1040532;28;19979;-80
2021/07/20 00:43:02;;;;;;;;;;;;;;;;;;1040777;28;19916;-79
2021/07/20 00:43:32;;;;;;;;;;;;;;;;;;1036934;28;19918;-80
2021/07/20 00:44:02;;;;;;;;;;;;;;;;;;1041733;28;19916;-80
2021/07/20 00:44:32;;;;;;;;;;;;;;;;;;1033354;28;19952;-80
2021/07/20 00:45:03;;;;;;;;;;;;;;;;;;1033200;28;19913;-80
2021/07/20 00:45:33;;;;;;;;;;;;;;;;;;1033437;28;19905;-79
2021/07/20 00:46:03;;;;;;;;;;;;;;;;;;1033298;28;19960;-79
2021/07/20 00:46:33;;;;;;;;;;;;;;;;;;1033154;28;19906;-79
2021/07/20 00:47:04;;;;;;;;;;;;;;;;;;1033520;28;19977;-80
2021/07/20 00:47:34;;;;;;;;;;;;;;;;;;1034015;28;19905;-80
2021/07/20 00:48:04;;;;;;;;;;;;;;;;;;1026028;28;19911;-80
2021/07/20 00:48:34;;;;;;;;;;;;;;;;;;1038218;28;20403;-80
2021/07/20 00:49:05;;;;;;;;;;;;;;;;;;1033650;28;20001;-81
2021/07/20 00:49:35;;;;;;;;;;;;;;;;;;1033499;28;19941;-79
2021/07/20 00:50:05;;;;;;;;;;;;;;;;;;1033512;28;19910;-79
2021/07/20 00:50:35;;;;;;;;;;;;;;;;;;1033423;28;20017;-79
2021/07/20 00:51:06;;;;;;;;;;;;;;;;;;1041391;28;19988;-79
2021/07/20 00:51:36;;;;;;;;;;;;;;;;;;1042246;28;20284;-79
2021/07/20 00:52:06;;;;;;;;;;;;;;;;;;1041932;28;19976;-79
2021/07/20 00:52:36;;;;;;;;;;;;;;;;;;1038226;28;19973;-80
2021/07/20 00:53:07;;;;;;;;;;;;;;;;;;1041993;28;19917;-79
2021/07/20 00:53:37;;;;;;;;;;;;;;;;;;1037979;28;19928;-80
2021/07/20 00:54:07;;;;;;;;;;;;;;;;;;1038278;28;19944;-80
2021/07/20 00:54:38;;;;;;;;;;;;;;;;;;1037976;28;19909;-80
2021/07/20 00:55:08;;;;;;;;;;;;;;;;;;1033710;28;19992;-79
2021/07/20 00:55:38;;;;;;;;;;;;;;;;;;1033460;28;20487;-79
2021/07/20 00:56:08;;;;;;;;;;;;;;;;;;1033529;28;20024;-79
2021/07/20 00:56:39;;;;;;;;;;;;;;;;;;1033329;28;20374;-79
2021/07/20 00:57:09;;;;;;;;;;;;;;;;;;1037643;28;19932;-80
2021/07/20 00:57:39;;;;;;;;;;;;;;;;;;1041923;28;19905;-79
2021/07/20 00:58:11;;;;;;;;;;;;;;;;;;1041811;28;20016;-80
2021/07/20 00:58:41;;;;;;;;;;;;;;;;;;1041410;28;20318;-80
2021/07/20 00:59:11;;;;;;;;;;;;;;;;;;1041230;28;19917;-78
2021/07/20 00:59:41;;;;;;;;;;;;;;;;;;1037211;28;20012;-79
2021/07/20 01:00:12;;;;;;;;;;;;;;;;;;1037271;28;20008;-79
2021/07/20 01:00:42;;;;;;;;;;;;;;;;;;1037210;28;19920;-79
2021/07/20 01:01:12;;;;;;;;;;;;;;;;;;1028950;28;19914;-79
2021/07/20 01:01:43;;;;;;;;;;;;;;;;;;1025087;29;19917;-79
2021/07/20 01:02:13;;;;;;;;;;;;;;;;;;1028991;28;20408;-79
2021/07/20 01:02:44;;;;;;;;;;;;;;;;;;1029279;28;19965;-79
2021/07/20 01:03:14;;;;;;;;;;;;;;;;;;1028879;28;20288;-79
2021/07/20 01:03:44;;;;;;;;;;;;;;;;;;1033276;28;19920;-79
2021/07/20 01:04:14;;;;;;;;;;;;;;;;;;1037613;28;19917;-80
2021/07/20 01:04:45;;;;;;;;;;;;;;;;;;1033726;28;19997;-80
2021/07/20 01:05:15;;;;;;;;;;;;;;;;;;1033074;28;19957;-79
2021/07/20 01:05:45;;;;;;;;;;;;;;;;;;1037490;28;19910;-80
2021/07/20 01:06:16;;;;;;;;;;;;;;;;;;1033420;28;19920;-79
2021/07/20 01:06:46;;;;;;;;;;;;;;;;;;1033462;28;19910;-79
2021/07/20 01:07:16;;;;;;;;;;;;;;;;;;1033493;28;19933;-79
2021/07/20 01:07:46;;;;;;;;;;;;;;;;;;1033294;28;19913;-80
2021/07/20 01:08:17;;;;;;;;;;;;;;;;;;1033214;28;19972;-81
2021/07/20 01:08:47;;;;;;;;;;;;;;;;;;1037483;28;19909;-80
2021/07/20 01:09:17;;;;;;;;;;;;;;;;;;1029041;28;20001;-78
2021/07/20 01:09:47;;;;;;;;;;;;;;;;;;1029311;28;19955;-79
2021/07/20 01:10:18;;;;;;;;;;;;;;;;;;1033403;28;20380;-80
2021/07/20 01:10:48;;;;;;;;;;;;;;;;;;1037337;28;19914;-80
2021/07/20 01:11:18;;;;;;;;;;;;;;;;;;1037460;28;19910;-79
2021/07/20 01:11:48;;;;;;;;;;;;;;;;;;1037523;28;20373;-79
2021/07/20 01:12:19;;;;;;;;;;;;;;;;;;1037563;28;19915;-79
2021/07/20 01:12:49;;;;;;;;;;;;;;;;;;1037486;28;19984;-79
2021/07/20 01:13:19;;;;;;;;;;;;;;;;;;1041651;28;19963;-78
2021/07/20 01:13:49;;;;;;;;;;;;;;;;;;1041590;28;20306;-79
2021/07/20 01:14:20;;;;;;;;;;;;;;;;;;1037841;28;19910;-79
2021/07/20 01:14:50;;;;;;;;;;;;;;;;;;1041706;28;19909;-78
2021/07/20 01:15:21;;;;;;;;;;;;;;;;;;1037590;28;19909;-79
2021/07/20 01:15:51;;;;;;;;;;;;;;;;;;1037964;28;19917;-79
2021/07/20 01:16:21;;;;;;;;;;;;;;;;;;1037801;28;19913;-80
2021/07/20 01:16:52;;;;;;;;;;;;;;;;;;1033979;28;19909;-79
2021/07/20 01:17:22;;;;;;;;;;;;;;;;;;1038013;28;19921;-81
2021/07/20 01:17:53;;;;;;;;;;;;;;;;;;1033511;28;20367;-79
2021/07/20 01:18:23;;;;;;;;;;;;;;;;;;1037756;28;20307;-79
2021/07/20 01:18:53;;;;;;;;;;;;;;;;;;1041787;28;20381;-78
2021/07/20 01:19:23;;;;;;;;;;;;;;;;;;1037619;28;19956;-79
2021/07/20 01:19:54;;;;;;;;;;;;;;;;;;1037660;28;19905;-80
2021/07/20 01:20:24;;;;;;;;;;;;;;;;;;1044325;28;19909;-82
2021/07/20 01:20:54;;;;;;;;;;;;;;;;;;1044845;28;19905;-79
2021/07/20 01:21:24;;;;;;;;;;;;;;;;;;1045184;28;19916;-80
2021/07/20 01:21:55;;;;;;;;;;;;;;;;;;1045215;28;19916;-80
2021/07/20 01:22:25;;;;;;;;;;;;;;;;;;1044058;28;19980;-80
2021/07/20 01:22:55;;;;;;;;;;;;;;;;;;1038483;28;19955;-81
2021/07/20 01:23:25;;;;;;;;;;;;;;;;;;1042777;28;19933;-81
2021/07/20 01:23:56;;;;;;;;;;;;;;;;;;1034273;28;19917;-81
2021/07/20 01:24:26;;;;;;;;;;;;;;;;;;1034747;28;19906;-81
2021/07/20 01:24:57;;;;;;;;;;;;;;;;;;1038333;28;19917;-82
2021/07/20 01:25:27;;;;;;;;;;;;;;;;;;1038038;28;19909;-81
2021/07/20 01:25:57;;;;;;;;;;;;;;;;;;1042205;28;19919;-81
2021/07/20 01:26:27;;;;;;;;;;;;;;;;;;1042682;28;19933;-80
2021/07/20 01:26:58;;;;;;;;;;;;;;;;;;1042051;28;19909;-81
2021/07/20 01:27:28;;;;;;;;;;;;;;;;;;1038532;28;20494;-80
2021/07/20 01:27:58;;;;;;;;;;;;;;;;;;1034158;28;19910;-80
2021/07/20 01:28:28;;;;;;;;;;;;;;;;;;1030202;28;19946;-81
2021/07/20 01:28:59;;;;;;;;;;;;;;;;;;1029930;28;19945;-80
2021/07/20 01:29:29;;;;;;;;;;;;;;;;;;1038203;28;19909;-80
2021/07/20 01:29:59;;;;;;;;;;;;;;;;;;1037546;28;19906;-80
2021/07/20 01:30:29;;;;;;;;;;;;;;;;;;1033107;28;19913;-79
2021/07/20 01:31:00;;;;;;;;;;;;;;;;;;1029167;28;19953;-79
2021/07/20 01:31:30;;;;;;;;;;;;;;;;;;1033117;28;19906;-79
2021/07/20 01:32:02;;;;;;;;;;;;;;;;;;1029144;28;19911;-78
2021/07/20 01:32:32;;;;;;;;;;;;;;;;;;1033392;28;19918;-78
2021/07/20 01:33:02;;;;;;;;;;;;;;;;;;1037684;28;19909;-79
2021/07/20 01:33:32;;;;;;;;;;;;;;;;;;1034115;28;19916;-79
2021/07/20 01:34:03;;;;;;;;;;;;;;;;;;1034074;28;19977;-79
2021/07/20 01:34:33;;;;;;;;;;;;;;;;;;1037940;28;20414;-79
2021/07/20 01:35:03;;;;;;;;;;;;;;;;;;1037608;28;19913;-79
2021/07/20 01:35:34;;;;;;;;;;;;;;;;;;1037695;28;19917;-79
2021/07/20 01:36:06;;;;;;;;;;;;;;;;;;1037286;28;19918;-79
2021/07/20 01:36:36;;;;;;;;;;;;;;;;;;1037542;28;19910;-79
2021/07/20 01:37:06;;;;;;;;;;;;;;;;;;1037983;28;20000;-79
2021/07/20 01:37:36;;;;;;;;;;;;;;;;;;1037729;28;19996;-79
2021/07/20 01:38:08;;;;;;;;;;;;;;;;;;1037954;28;19913;-81
2021/07/20 01:38:38;;;;;;;;;;;;;;;;;;1033742;28;20260;-79
2021/07/20 01:39:09;;;;;;;;;;;;;;;;;;1037998;28;19909;-81
2021/07/20 01:39:39;;;;;;;;;;;;;;;;;;1038338;28;19910;-81
2021/07/20 01:40:09;;;;;;;;;;;;;;;;;;1042362;28;19952;-80
2021/07/20 01:40:39;;;;;;;;;;;;;;;;;;1041694;28;19912;-79
2021/07/20 01:41:10;;;;;;;;;;;;;;;;;;1037866;28;19940;-80
2021/07/20 01:41:40;;;;;;;;;;;;;;;;;;1041930;28;19974;-80
2021/07/20 01:42:10;;;;;;;;;;;;;;;;;;1033979;28;19909;-81
2021/07/20 01:42:41;;;;;;;;;;;;;;;;;;1033919;28;19906;-80
2021/07/20 01:43:11;;;;;;;;;;;;;;;;;;1033835;28;19905;-80
2021/07/20 01:43:41;;;;;;;;;;;;;;;;;;1033806;28;19964;-80
2021/07/20 01:44:11;;;;;;;;;;;;;;;;;;1034057;28;19949;-81
2021/07/20 01:44:42;;;;;;;;;;;;;;;;;;1038015;28;19910;-80
2021/07/20 01:45:12;;;;;;;;;;;;;;;;;;1033779;28;19999;-82
2021/07/20 01:45:42;;;;;;;;;;;;;;;;;;1026035;29;19938;-82
2021/07/20 01:46:12;;;;;;;;;;;;;;;;;;1026369;28;19902;-85
2021/07/20 01:46:43;;;;;;;;;;;;;;;;;;1030531;28;19913;-83
2021/07/20 01:47:13;;;;;;;;;;;;;;;;;;1035067;28;19977;-83
2021/07/20 01:47:43;;;;;;;;;;;;;;;;;;1034322;28;19906;-83
2021/07/20 01:48:13;;;;;;;;;;;;;;;;;;1034914;28;19981;-82
2021/07/20 01:48:44;;;;;;;;;;;;;;;;;;1031826;28;19956;-83
2021/07/20 01:49:14;;;;;;;;;;;;;;;;;;1038404;28;19908;-82
2021/07/20 01:49:44;;;;;;;;;;;;;;;;;;1034460;28;20051;-84
2021/07/20 01:50:14;;;;;;;;;;;;;;;;;;1034787;28;19913;-84
2021/07/20 01:50:45;;;;;;;;;;;;;;;;;;1037595;28;19905;-84
2021/07/20 01:51:15;;;;;;;;;;;;;;;;;;1037659;28;19906;-83
2021/07/20 01:51:45;;;;;;;;;;;;;;;;;;1037130;28;20462;-82
2021/07/20 01:52:15;;;;;;;;;;;;;;;;;;1037662;28;20004;-82
2021/07/20 01:52:46;;;;;;;;;;;;;;;;;;1041570;28;19940;-82
2021/07/20 01:53:16;;;;;;;;;;;;;;;;;;1041656;28;20008;-83
2021/07/20 01:53:46;;;;;;;;;;;;;;;;;;1041839;28;19932;-83
2021/07/20 01:54:16;;;;;;;;;;;;;;;;;;1041725;28;19916;-83
2021/07/20 01:54:47;;;;;;;;;;;;;;;;;;1037652;28;20000;-83
2021/07/20 01:55:17;;;;;;;;;;;;;;;;;;1037360;28;19940;-82
2021/07/20 01:55:47;;;;;;;;;;;;;;;;;;1045847;28;19944;-85
2021/07/20 01:56:17;;;;;;;;;;;;;;;;;;1041650;28;20083;-83
2021/07/20 01:56:48;;;;;;;;;;;;;;;;;;1037698;28;19952;-84
2021/07/20 01:57:18;;;;;;;;;;;;;;;;;;1033527;28;20001;-83
2021/07/20 01:57:48;;;;;;;;;;;;;;;;;;1029441;28;20356;-84
2021/07/20 01:58:18;;;;;;;;;;;;;;;;;;1033196;28;19918;-84
2021/07/20 01:58:49;;;;;;;;;;;;;;;;;;1037702;28;19910;-84
2021/07/20 01:59:19;;;;;;;;;;;;;;;;;;1037702;28;19932;-84
2021/07/20 01:59:49;;;;;;;;;;;;;;;;;;1029593;28;19917;-84
2021/07/20 02:00:19;;;;;;;;;;;;;;;;;;1033448;28;19913;-84
2021/07/20 02:00:50;;;;;;;;;;;;;;;;;;1029624;28;19982;-83
2021/07/20 02:01:20;;;;;;;;;;;;;;;;;;1038336;28;19912;-82
2021/07/20 02:01:59;;;;;;;;;;;;;;;;;;1046780;28;19909;-83
2021/07/20 02:02:39;;;;;;;;;;;;;;;;;;1042383;28;19913;-82
2021/07/20 02:08:49;;;;;;;;;;;;;;;;;;1037650;28;20367;-83
2021/07/20 02:09:20;;;;;;;;;;;;;;;;;;1037447;28;19910;-81
2021/07/20 02:09:50;;;;;;;;;;;;;;;;;;1039971;28;20287;-81
2021/07/20 02:10:20;;;;;;;;;;;;;;;;;;1042636;28;19909;-81
2021/07/20 02:10:50;;;;;;;;;;;;;;;;;;1039486;28;19910;-81
2021/07/20 02:11:24;;;;;;;;;;;;;;;;;;1038952;28;20372;-80
2021/07/20 02:11:54;;;;;;;;;;;;;;;;;;1042263;28;19909;-82
2021/07/20 02:12:38;;;;;;;;;;;;;;;;;;1037608;28;20018;-81
2021/07/20 02:13:08;;;;;;;;;;;;;;;;;;1036517;28;20344;-82
2021/07/20 02:13:41;;;;;;;;;;;;;;;;;;1036652;28;19961;-81
2021/07/20 02:14:14;;;;;;;;;;;;;;;;;;1036376;28;19920;-81
2021/07/20 02:14:44;;;;;;;;;;;;;;;;;;1042626;28;19909;-82
2021/07/20 02:15:14;;;;;;;;;;;;;;;;;;1041875;28;19909;-82
2021/07/20 02:15:45;;;;;;;;;;;;;;;;;;1038051;28;20051;-81
2021/07/20 02:16:15;;;;;;;;;;;;;;;;;;1034076;28;20280;-81
2021/07/20 02:16:45;;;;;;;;;;;;;;;;;;1030760;28;20043;-82
2021/07/20 02:17:16;;;;;;;;;;;;;;;;;;1029099;28;19941;-84
2021/07/20 02:17:46;;;;;;;;;;;;;;;;;;1033019;28;19910;-83
2021/07/20 02:18:16;;;;;;;;;;;;;;;;;;1037277;28;19916;-82
2021/07/20 02:18:47;;;;;;;;;;;;;;;;;;1041514;28;19952;-81
2021/07/20 02:19:17;;;;;;;;;;;;;;;;;;1037176;28;19912;-81
2021/07/20 02:19:47;;;;;;;;;;;;;;;;;;1037565;28;19913;-81
2021/07/20 02:20:18;;;;;;;;;;;;;;;;;;1037407;28;19937;-83
2021/07/20 02:20:48;;;;;;;;;;;;;;;;;;1025698;29;19911;-82
2021/07/20 02:21:18;;;;;;;;;;;;;;;;;;1033590;28;19914;-83
2021/07/20 02:21:50;;;;;;;;;;;;;;;;;;1037636;28;19957;-84
2021/07/20 02:22:20;;;;;;;;;;;;;;;;;;1033496;28;19945;-84
2021/07/20 02:22:51;;;;;;;;;;;;;;;;;;1037428;28;19960;-84
2021/07/20 02:23:21;;;;;;;;;;;;;;;;;;1033941;28;19906;-84
2021/07/20 02:23:51;;;;;;;;;;;;;;;;;;1033598;28;19910;-83
2021/07/20 02:24:21;;;;;;;;;;;;;;;;;;1037339;28;19923;-85
2021/07/20 02:24:52;;;;;;;;;;;;;;;;;;1045796;28;20338;-84
2021/07/20 02:25:22;;;;;;;;;;;;;;;;;;1046435;28;19905;-83
2021/07/20 02:25:52;;;;;;;;;;;;;;;;;;1045922;28;20016;-82
2021/07/20 02:26:22;;;;;;;;;;;;;;;;;;1037788;28;19906;-83
2021/07/20 02:26:53;;;;;;;;;;;;;;;;;;1029747;28;19917;-83
2021/07/20 02:27:23;;;;;;;;;;;;;;;;;;1029788;28;19945;-82
2021/07/20 02:27:53;;;;;;;;;;;;;;;;;;1033600;28;19916;-83
2021/07/20 02:28:23;;;;;;;;;;;;;;;;;;1037679;28;19917;-82
2021/07/20 02:28:54;;;;;;;;;;;;;;;;;;1041935;28;19909;-81
2021/07/20 02:29:24;;;;;;;;;;;;;;;;;;1038146;28;20008;-81
2021/07/20 02:29:54;;;;;;;;;;;;;;;;;;1034227;28;20383;-80
2021/07/20 02:30:24;;;;;;;;;;;;;;;;;;1042377;28;19905;-80
2021/07/20 02:30:55;;;;;;;;;;;;;;;;;;1042092;28;19909;-80
2021/07/20 02:31:25;;;;;;;;;;;;;;;;;;1046292;28;19909;-81
2021/07/20 02:31:55;;;;;;;;;;;;;;;;;;1046410;28;20011;-81
2021/07/20 02:32:25;;;;;;;;;;;;;;;;;;1037929;28;19917;-81
2021/07/20 02:32:56;;;;;;;;;;;;;;;;;;1042037;28;20335;-81
2021/07/20 02:33:26;;;;;;;;;;;;;;;;;;1038002;28;19993;-82
2021/07/20 02:33:56;;;;;;;;;;;;;;;;;;1038489;28;19905;-81
2021/07/20 02:34:26;;;;;;;;;;;;;;;;;;1038061;28;19921;-82
2021/07/20 02:34:57;;;;;;;;;;;;;;;;;;1033907;28;19918;-81
2021/07/20 02:35:27;;;;;;;;;;;;;;;;;;1037825;28;20405;-85
2021/07/20 02:35:57;;;;;;;;;;;;;;;;;;1034178;28;19972;-84
2021/07/20 02:36:27;;;;;;;;;;;;;;;;;;1033775;28;20372;-83
2021/07/20 02:36:58;;;;;;;;;;;;;;;;;;1037901;28;19932;-81
2021/07/20 02:37:28;;;;;;;;;;;;;;;;;;1034030;28;19910;-83
2021/07/20 02:37:58;;;;;;;;;;;;;;;;;;1038101;28;19906;-82
2021/07/20 02:38:28;;;;;;;;;;;;;;;;;;1037677;28;19909;-83
2021/07/20 02:38:59;;;;;;;;;;;;;;;;;;1033816;28;19910;-83
2021/07/20 02:39:29;;;;;;;;;;;;;;;;;;1034171;28;19910;-82
2021/07/20 02:39:59;;;;;;;;;;;;;;;;;;1029972;28;19977;-82
2021/07/20 02:40:29;;;;;;;;;;;;;;;;;;1033960;28;19937;-83
2021/07/20 02:41:00;;;;;;;;;;;;;;;;;;1038196;28;20363;-82
2021/07/20 02:41:30;;;;;;;;;;;;;;;;;;1034088;28;19910;-82
2021/07/20 02:42:00;;;;;;;;;;;;;;;;;;1038139;28;20351;-82
2021/07/20 02:42:30;;;;;;;;;;;;;;;;;;1037898;28;19952;-84
2021/07/20 02:43:01;;;;;;;;;;;;;;;;;;1042152;28;19910;-84
2021/07/20 02:43:32;;;;;;;;;;;;;;;;;;1041642;28;19909;-83
2021/07/20 02:44:02;;;;;;;;;;;;;;;;;;1042016;28;19910;-83
2021/07/20 02:44:32;;;;;;;;;;;;;;;;;;1042149;28;19995;-82
2021/07/20 02:45:03;;;;;;;;;;;;;;;;;;1041884;28;19901;-83
2021/07/20 02:45:33;;;;;;;;;;;;;;;;;;1046032;28;20295;-84
2021/07/20 02:46:03;;;;;;;;;;;;;;;;;;1045915;28;19912;-81
2021/07/20 02:46:33;;;;;;;;;;;;;;;;;;1046068;28;19905;-82
2021/07/20 02:47:04;;;;;;;;;;;;;;;;;;1046020;28;19911;-81
2021/07/20 02:47:34;;;;;;;;;;;;;;;;;;1037639;28;19927;-81
2021/07/20 02:48:04;;;;;;;;;;;;;;;;;;1037887;28;19995;-81
2021/07/20 02:48:34;;;;;;;;;;;;;;;;;;1037809;28;20008;-83
2021/07/20 02:49:05;;;;;;;;;;;;;;;;;;1037607;28;19902;-81
2021/07/20 02:49:35;;;;;;;;;;;;;;;;;;1037827;28;20422;-84
2021/07/20 02:50:05;;;;;;;;;;;;;;;;;;1041818;28;19992;-82
2021/07/20 02:50:35;;;;;;;;;;;;;;;;;;1037968;28;20390;-81
2021/07/20 02:51:06;;;;;;;;;;;;;;;;;;1033758;28;19961;-82
2021/07/20 02:51:36;;;;;;;;;;;;;;;;;;1029974;28;19934;-81
2021/07/20 02:52:06;;;;;;;;;;;;;;;;;;1029949;28;19914;-82
2021/07/20 02:52:37;;;;;;;;;;;;;;;;;;1029902;28;20435;-82
2021/07/20 02:53:07;;;;;;;;;;;;;;;;;;1029522;28;19918;-81
2021/07/20 02:53:37;;;;;;;;;;;;;;;;;;1037697;28;19905;-82
2021/07/20 02:54:07;;;;;;;;;;;;;;;;;;1041870;28;20051;-82
2021/07/20 02:54:38;;;;;;;;;;;;;;;;;;1037708;28;19965;-82
2021/07/20 02:55:08;;;;;;;;;;;;;;;;;;1033904;28;19910;-81
2021/07/20 02:55:38;;;;;;;;;;;;;;;;;;1033697;28;19973;-82
2021/07/20 02:56:08;;;;;;;;;;;;;;;;;;1033507;28;20331;-82
2021/07/20 02:56:39;;;;;;;;;;;;;;;;;;1033977;28;19906;-82
2021/07/20 02:57:09;;;;;;;;;;;;;;;;;;1033991;28;19910;-81
2021/07/20 02:57:39;;;;;;;;;;;;;;;;;;1033923;28;19902;-81
2021/07/20 02:58:09;;;;;;;;;;;;;;;;;;1037715;28;20048;-80
2021/07/20 02:58:40;;;;;;;;;;;;;;;;;;1041487;28;20278;-80
2021/07/20 02:59:10;;;;;;;;;;;;;;;;;;1041479;28;19910;-82
2021/07/20 02:59:40;;;;;;;;;;;;;;;;;;1041875;28;19905;-81
2021/07/20 03:00:10;;;;;;;;;;;;;;;;;;1041613;28;19909;-82
2021/07/20 03:00:41;;;;;;;;;;;;;;;;;;1037744;28;19906;-82
2021/07/20 03:01:11;;;;;;;;;;;;;;;;;;1037526;28;20394;-82
2021/07/20 03:01:41;;;;;;;;;;;;;;;;;;1045873;28;19988;-82
2021/07/20 03:02:11;;;;;;;;;;;;;;;;;;1037498;28;20004;-81
2021/07/20 03:02:42;;;;;;;;;;;;;;;;;;1037733;28;19909;-82
2021/07/20 03:03:13;;;;;;;;;;;;;;;;;;1041480;28;19944;-82
2021/07/20 03:03:43;;;;;;;;;;;;;;;;;;1041970;28;19909;-81
2021/07/20 03:04:13;;;;;;;;;;;;;;;;;;1037526;28;19921;-81
2021/07/20 03:04:44;;;;;;;;;;;;;;;;;;1033658;28;20303;-82
2021/07/20 03:05:14;;;;;;;;;;;;;;;;;;1033569;28;19916;-81
2021/07/20 03:05:44;;;;;;;;;;;;;;;;;;1033921;28;19925;-81
2021/07/20 03:06:14;;;;;;;;;;;;;;;;;;1041573;28;19973;-81
2021/07/20 03:06:45;;;;;;;;;;;;;;;;;;1045807;28;20026;-81
2021/07/20 03:07:15;;;;;;;;;;;;;;;;;;1041242;28;19909;-81
2021/07/20 03:07:45;;;;;;;;;;;;;;;;;;1045476;28;20358;-82
2021/07/20 03:08:16;;;;;;;;;;;;;;;;;;1041986;28;20326;-81
2021/07/20 03:08:46;;;;;;;;;;;;;;;;;;1037896;28;19948;-81
2021/07/20 03:09:18;;;;;;;;;;;;;;;;;;1037742;28;19910;-81
2021/07/20 03:09:48;;;;;;;;;;;;;;;;;;1033956;28;19910;-81
2021/07/20 03:10:18;;;;;;;;;;;;;;;;;;1033925;28;19917;-81
2021/07/20 03:10:49;;;;;;;;;;;;;;;;;;1038208;28;19910;-80
2021/07/20 03:11:19;;;;;;;;;;;;;;;;;;1042186;28;19920;-81
2021/07/20 03:11:49;;;;;;;;;;;;;;;;;;1038445;28;19910;-82
2021/07/20 03:12:19;;;;;;;;;;;;;;;;;;1038007;28;19932;-82
2021/07/20 03:12:50;;;;;;;;;;;;;;;;;;1034662;28;19910;-81
2021/07/20 03:13:20;;;;;;;;;;;;;;;;;;1032660;28;19911;-81
2021/07/20 03:13:50;;;;;;;;;;;;;;;;;;1033043;28;19928;-81
2021/07/20 03:14:20;;;;;;;;;;;;;;;;;;1037661;28;19921;-82
2021/07/20 03:14:51;;;;;;;;;;;;;;;;;;1045593;28;19898;-82
2021/07/20 03:15:21;;;;;;;;;;;;;;;;;;1045671;28;19897;-81
2021/07/20 03:15:51;;;;;;;;;;;;;;;;;;1040593;28;19956;-81
2021/07/20 03:16:21;;;;;;;;;;;;;;;;;;1036614;28;19941;-81
2021/07/20 03:16:51;;;;;;;;;;;;;;;;;;1031410;28;19914;-81
2021/07/20 03:17:22;;;;;;;;;;;;;;;;;;1034106;28;20470;-80
2021/07/20 03:17:52;;;;;;;;;;;;;;;;;;1041770;28;19940;-80
2021/07/20 03:18:22;;;;;;;;;;;;;;;;;;1045711;28;19909;-80
2021/07/20 03:18:52;;;;;;;;;;;;;;;;;;1041935;28;19972;-81
2021/07/20 03:19:23;;;;;;;;;;;;;;;;;;1033679;28;20387;-81
2021/07/20 03:19:53;;;;;;;;;;;;;;;;;;1034548;28;19929;-80
2021/07/20 03:20:23;;;;;;;;;;;;;;;;;;1034069;28;19910;-82
2021/07/20 03:20:53;;;;;;;;;;;;;;;;;;1038099;28;19941;-81
2021/07/20 03:21:24;;;;;;;;;;;;;;;;;;1034686;28;19916;-81
2021/07/20 03:21:54;;;;;;;;;;;;;;;;;;1034192;28;19910;-82
2021/07/20 03:22:24;;;;;;;;;;;;;;;;;;1033796;28;19909;-82
2021/07/20 03:22:54;;;;;;;;;;;;;;;;;;1034038;28;19910;-81
2021/07/20 03:23:25;;;;;;;;;;;;;;;;;;1034447;28;19910;-82
2021/07/20 03:23:55;;;;;;;;;;;;;;;;;;1034470;28;19953;-83
2021/07/20 03:24:25;;;;;;;;;;;;;;;;;;1038348;28;19913;-81
2021/07/20 03:24:55;;;;;;;;;;;;;;;;;;1038233;28;19928;-82
2021/07/20 03:25:26;;;;;;;;;;;;;;;;;;1038083;28;19957;-83
2021/07/20 03:25:56;;;;;;;;;;;;;;;;;;1038077;28;19905;-81
2021/07/20 03:26:26;;;;;;;;;;;;;;;;;;1038309;28;19901;-81
2021/07/20 03:26:56;;;;;;;;;;;;;;;;;;1030401;28;19902;-81
2021/07/20 03:27:31;;;;;;;;;;;;;;;;;;1034866;28;19953;-81
2021/07/20 03:28:01;;;;;;;;;;;;;;;;;;1035937;28;19941;-81
2021/07/20 03:28:31;;;;;;;;;;;;;;;;;;1040927;28;19952;-81
2021/07/20 03:29:02;;;;;;;;;;;;;;;;;;1043954;28;20000;-81
2021/07/20 03:29:32;;;;;;;;;;;;;;;;;;1035499;28;19894;-80
2021/07/20 03:30:02;;;;;;;;;;;;;;;;;;1027163;28;19906;-81
2021/07/20 03:30:33;;;;;;;;;;;;;;;;;;1027010;29;19906;-82
2021/07/20 03:31:03;;;;;;;;;;;;;;;;;;1027104;28;19906;-81
2021/07/20 03:31:33;;;;;;;;;;;;;;;;;;1030990;28;19906;-82
2021/07/20 03:32:03;;;;;;;;;;;;;;;;;;1034910;28;19913;-82
2021/07/20 03:32:34;;;;;;;;;;;;;;;;;;1035540;28;19905;-82
2021/07/20 03:33:04;;;;;;;;;;;;;;;;;;1031903;28;19973;-80
2021/07/20 03:33:34;;;;;;;;;;;;;;;;;;1037057;28;19929;-81